Strona główna
METAR-TAF:

METAR-TAF

Lotnisko :

Platforma wiertnicza

K13-a, Holandia

Szerokość geograficzna: 53-13-04N, Długość geograficzna: 3-13-13E, wysokość: 31 m

Aktualna obserwacja pogody

Raport powstał 46 minut temu, godzina 10:55 UTC
Wiatr 34 kt od południowo-południowy zachód
Temperatura 9°C
Wilgotność 76%
Ciśnienie 1016 hPa

METAR: EHJR 101055Z AUTO 20034KT //// // ///////// 09/05 Q1016 RE// W10/H24

czas: 12:41 (11:41 UTC)


TAF: brakujący

Obserwacja i prognoza pogody dla ponad 4000 lotnisk (raport METAR i TAF).

Dostępne stacje oznaczono żółtymi i czerwonymi punktami na mapie.

Najedź kursorem aby zobaczyć nazwę stacji.

Kliknij aby zobaczyć obserwacje i prognozy pogody.

Aby zmienić mapę: kliknij na zielony przycisk z czarnym krzyżykiem, aby powiększyć; na zielony przycisk z myślnikiem, aby pomniejszyć; na zielone strzałki, aby przejść do map sąsiednich.


METAR-TAF: